Storm Events Database

Event Details

Event Hail
Magnitude 1.75 in.
State NEBRASKA
County/Area LOUP
WFO LBF
Begin Date 06/17/2009 19:52:00 CST-6
Begin Range 4
Begin Azimuth W
Begin Location TAYLOR
Begin Lat/Lon 41.77/-99.46
End Date 06/17/2009 19:52:00 CST-6
Deaths Direct/Indirect 0/0 (fatality details below, when available...)
Injuries Direct/Indirect 0/0
Property Damage 8.00K
Crop Damage 10.00K
Episode Narrative Supercell storms developed across western and north central Nebraska during the afternoon of June 17th and produced very large hail, heavy rain, funnels, and a brief tornado. As the evening progressed, the storms transitioned into bow echoes and produced strong straight-line winds during the early morning hours of June 18th.
Event Narrative


All events for this episode:

Location County/Zone St. Date Time T.Z. Type Mag Dth Inj PrD CrD
Totals: 0 0 184.00K 105.00K
NAPER BOYD CO. NE 06/17/2009 17:00 CST-6 Hail 2.75 in. 0 0 10.00K 15.00K
MILLS KEYA PAHA CO. NE 06/17/2009 17:00 CST-6 Hail 1.00 in. 0 0 0.00K 0.00K
NAPER BOYD CO. NE 06/17/2009 17:10 CST-6 Hail 1.75 in. 0 0 15.00K 15.00K
NAPER BOYD CO. NE 06/17/2009 17:20 CST-6 Hail 1.00 in. 0 0 3.00K 0.00K
NAPER BOYD CO. NE 06/17/2009 17:37 CST-6 Hail 1.00 in. 0 0 5.00K 0.00K
NAPER BOYD CO. NE 06/17/2009 17:43 CST-6 Hail 1.75 in. 0 0 15.00K 0.00K
CALLAWAY CUSTER CO. NE 06/17/2009 17:49 CST-6 Hail 1.75 in. 0 0 5.00K 0.00K
BUTTE BOYD CO. NE 06/17/2009 17:53 CST-6 Hail 0.75 in. 0 0 0.00K 0.00K
OCONTO CUSTER CO. NE 06/17/2009 17:53 CST-6 Hail 1.75 in. 0 0 5.00K 0.00K
ANOKA BOYD CO. NE 06/17/2009 18:00 CST-6 Hail 2.25 in. 0 0 10.00K 10.00K
ERICSON WHEELER CO. NE 06/17/2009 18:45 CST-6 Hail 1.00 in. 0 0 0.00K 0.00K
MASON CITY CUSTER CO. NE 06/17/2009 18:50 CST-6 Tornado EF0 0 0 0.00K 0.00K
BARTLETT WHEELER CO. NE 06/17/2009 18:56 CST-6 Hail 1.75 in. 0 0 10.00K 10.00K
BARTLETT WHEELER CO. NE 06/17/2009 19:00 CST-6 Hail 1.75 in. 0 0 5.00K 0.00K
MASON CITY CUSTER CO. NE 06/17/2009 19:05 CST-6 Thunderstorm Wind 52 kts. EG 0 0 0.00K 0.00K
MERNA CUSTER CO. NE 06/17/2009 19:10 CST-6 Hail 1.00 in. 0 0 0.00K 0.00K
MASON CITY CUSTER CO. NE 06/17/2009 19:12 CST-6 Hail 1.75 in. 0 0 5.00K 0.00K
BARTLETT WHEELER CO. NE 06/17/2009 19:15 CST-6 Hail 1.00 in. 0 0 0.00K 0.00K
CHAMPION CHASE CO. NE 06/17/2009 19:41 MST-7 Hail 1.75 in. 0 0 5.00K 10.00K
ALMERIA LOUP CO. NE 06/17/2009 19:51 CST-6 Hail 2.75 in. 0 0 18.00K 10.00K
TAYLOR LOUP CO. NE 06/17/2009 19:52 CST-6 Hail 1.75 in. 0 0 8.00K 10.00K
SWAN LAKE HOLT CO. NE 06/17/2009 20:30 CST-6 Hail 1.25 in. 0 0 5.00K 0.00K
BIG SPGS DEUEL CO. NE 06/17/2009 22:41 MST-7 Hail 1.00 in. 0 0 0.00K 0.00K
LAKE MC CONAGHY KEITH CO. NE 06/17/2009 23:20 MST-7 Hail 1.75 in. 0 0 10.00K 0.00K
MERRITT RES CHERRY CO. NE 06/18/2009 00:00 CST-6 Thunderstorm Wind 52 kts. EG 0 0 0.00K 0.00K
BASSETT ROCK CO. NE 06/18/2009 02:00 CST-6 Thunderstorm Wind 52 kts. EG 0 0 0.00K 0.00K
NEWPORT ROCK CO. NE 06/18/2009 02:50 CST-6 Hail 1.75 in. 0 0 15.00K 0.00K
EMMET HOLT CO. NE 06/18/2009 03:15 CST-6 Thunderstorm Wind 61 kts. EG 0 0 35.00K 25.00K
MONOWI BOYD CO. NE 06/18/2009 03:20 CST-6 Thunderstorm Wind 61 kts. EG 0 0 0.00K 0.00K
Totals: 0 0 184.00K 105.00K